Ana Sayfa
METAR-TAF:

METAR-TAF

Havaalanları :

Gambell, Alaska, Amerika Birleşik Devletleri

Enlem: 63-46N, Boylam: 171-44W, yükseklik: 8 m

Güncel hava durumu gözlemi

Rapor saat 14:56 UTC de 44 dakika önce yapıldı.
Rüzgar kuzeydan 12 kt
Sıcaklık -17°C
Nem 84%
Basınç 1008 hPa
Görüş mesafesi: 16.1 km
1300 ft yükseklikte parçalı bulutlu

METAR: PAGM 151456Z AUTO 01012KT 10SM SCT013 M17/M19 A2976 RMK AO2 SLP084 T11671189 51008 FZRANO

Saat: 06:40 (15:40 UTC)


TAF: eksik

4.000'den fazla havaalanı için hava durumu gözlemleri ve tahminleri (METAR ve TAF raporları).

Kullanılabilir istasyonlar harita üzerinde sarı ve kırmızı noktalarla gösterilir.

İstasyonun adını görmek için fareyi noktanın üzerinde gezdirin.

Sonrasında hava gözlem ve tahminlerini görmek için tıklayın.

Haritayı değiştirmek için: yaklaştırmak için siyah artı işaretli yeşil düğmeye ve uzaklaştırmak için de eksi işaretli düğmeye hızla tıklayın; bitişik haritalar için yeşil okları kullanın.


METAR-TAF: